sensor_id;sensor_type;location;lat;lon;timestamp;P1;durP1;ratioP1;P2;durP2;ratioP2
61956;SDS011;47916;45.544;10.166;2022-09-03T00:00:00;4.15;;;1.17;;
61956;SDS011;47916;45.544;10.166;2022-09-03T00:00:17;3.72;;;1.05;;
61956;SDS011;47916;45.544;10.166;2022-09-03T00:00:28;3.22;;;1.00;;
61956;SDS011;47916;45.544;10.166;2022-09-03T00:00:40;3.10;;;1.00;;
61956;SDS011;47916;45.544;10.166;2022-09-03T00:00:59;2.42;;;1.02;;
61956;SDS011;47916;45.544;10.166;2022-09-03T00:01:22;2.75;;;1.33;;
61956;SDS011;47916;45.544;10.166;2022-09-03T00:01:43;4.55;;;2.05;;
61956;SDS011;47916;45.544;10.166;2022-09-03T00:02:06;4.47;;;1.88;;
61956;SDS011;47916;45.544;10.166;2022-09-03T00:02:39;5.32;;;1.63;;
61956;SDS011;47916;45.544;10.166;2022-09-03T00:03:05;3.45;;;1.65;;
61956;SDS011;47916;45.544;10.166;2022-09-03T00:03:32;4.13;;;2.08;;
61956;SDS011;47916;45.544;10.166;2022-09-03T00:03:48;3.95;;;1.80;;
61956;SDS011;47916;45.544;10.166;2022-09-03T00:04:02;4.32;;;1.70;;
61956;SDS011;47916;45.544;10.166;2022-09-03T00:04:17;3.80;;;1.45;;
61956;SDS011;47916;45.544;10.166;2022-09-03T00:04:38;3.42;;;1.92;;
61956;SDS011;47916;45.544;10.166;2022-09-03T00:05:00;4.22;;;2.13;;
61956;SDS011;47916;45.544;10.166;2022-09-03T00:06:17;3.55;;;1.48;;
61956;SDS011;47916;45.544;10.166;2022-09-03T00:06:32;3.60;;;1.50;;
61956;SDS011;47916;45.544;10.166;2022-09-03T00:06:47;3.42;;;1.50;;
61956;SDS011;47916;45.544;10.166;2022-09-03T00:07:02;3.38;;;1.40;;
61956;SDS011;47916;45.544;10.166;2022-09-03T00:07:16;2.75;;;1.38;;
61956;SDS011;47916;45.544;10.166;2022-09-03T00:07:45;3.55;;;1.70;;
61956;SDS011;47916;45.544;10.166;2022-09-03T00:08:02;3.42;;;1.48;;
61956;SDS011;47916;45.544;10.166;2022-09-03T00:08:26;2.72;;;1.20;;
61956;SDS011;47916;45.544;10.166;2022-09-03T00:08:46;4.53;;;1.48;;
61956;SDS011;47916;45.544;10.166;2022-09-03T00:09:10;4.72;;;1.33;;
61956;SDS011;47916;45.544;10.166;2022-09-03T00:09:24;3.38;;;1.60;;
61956;SDS011;47916;45.544;10.166;2022-09-03T00:09:46;3.47;;;1.73;;
61956;SDS011;47916;45.544;10.166;2022-09-03T00:10:01;4.32;;;1.83;;
61956;SDS011;47916;45.544;10.166;2022-09-03T00:10:15;7.60;;;2.38;;
61956;SDS011;47916;45.544;10.166;2022-09-03T00:10:31;5.90;;;2.17;;
61956;SDS011;47916;45.544;10.166;2022-09-03T00:10:55;5.22;;;1.75;;
61956;SDS011;47916;45.544;10.166;2022-09-03T00:11:24;5.22;;;2.50;;
61956;SDS011;47916;45.544;10.166;2022-09-03T00:11:46;4.85;;;1.75;;
61956;SDS011;47916;45.544;10.166;2022-09-03T00:12:07;4.10;;;1.40;;
61956;SDS011;47916;45.544;10.166;2022-09-03T00:12:25;2.97;;;1.40;;
61956;SDS011;47916;45.544;10.166;2022-09-03T00:12:39;3.03;;;1.60;;
61956;SDS011;47916;45.544;10.166;2022-09-03T00:12:53;3.35;;;1.60;;
61956;SDS011;47916;45.544;10.166;2022-09-03T00:13:06;4.68;;;1.60;;
61956;SDS011;47916;45.544;10.166;2022-09-03T00:13:30;4.93;;;1.70;;
61956;SDS011;47916;45.544;10.166;2022-09-03T00:13:49;3.53;;;1.75;;
61956;SDS011;47916;45.544;10.166;2022-09-03T00:14:03;5.80;;;1.60;;
61956;SDS011;47916;45.544;10.166;2022-09-03T00:14:23;5.40;;;1.48;;
61956;SDS011;47916;45.544;10.166;2022-09-03T00:15:11;1.98;;;1.20;;
61956;SDS011;47916;45.544;10.166;2022-09-03T00:15:18;3.13;;;1.50;;
61956;SDS011;47916;45.544;10.166;2022-09-03T00:15:22;4.22;;;1.58;;
61956;SDS011;47916;45.544;10.166;2022-09-03T00:15:34;7.15;;;1.80;;
61956;SDS011;47916;45.544;10.166;2022-09-03T00:15:46;6.82;;;1.70;;
61956;SDS011;47916;45.544;10.166;2022-09-03T00:15:58;5.10;;;1.35;;
61956;SDS011;47916;45.544;10.166;2022-09-03T00:16:12;4.63;;;1.40;;
61956;SDS011;47916;45.544;10.166;2022-09-03T00:16:26;3.92;;;1.27;;
61956;SDS011;47916;45.544;10.166;2022-09-03T00:16:42;3.13;;;1.45;;
61956;SDS011;47916;45.544;10.166;2022-09-03T00:18:01;4.93;;;1.50;;
61956;SDS011;47916;45.544;10.166;2022-09-03T00:18:18;4.38;;;1.50;;
61956;SDS011;47916;45.544;10.166;2022-09-03T00:18:32;3.97;;;1.95;;
61956;SDS011;47916;45.544;10.166;2022-09-03T00:18:45;4.07;;;2.00;;
61956;SDS011;47916;45.544;10.166;2022-09-03T00:18:59;3.23;;;1.70;;
61956;SDS011;47916;45.544;10.166;2022-09-03T00:19:11;3.58;;;1.42;;
61956;SDS011;47916;45.544;10.166;2022-09-03T00:19:27;4.55;;;1.73;;
61956;SDS011;47916;45.544;10.166;2022-09-03T00:19:43;4.75;;;2.00;;
61956;SDS011;47916;45.544;10.166;2022-09-03T00:19:58;2.88;;;1.60;;
61956;SDS011;47916;45.544;10.166;2022-09-03T00:20:30;4.55;;;1.42;;
61956;SDS011;47916;45.544;10.166;2022-09-03T00:20:49;4.53;;;1.73;;
61956;SDS011;47916;45.544;10.166;2022-09-03T00:21:06;3.45;;;1.70;;
61956;SDS011;47916;45.544;10.166;2022-09-03T00:21:28;3.60;;;1.70;;
61956;SDS011;47916;45.544;10.166;2022-09-03T00:21:46;2.60;;;1.35;;
61956;SDS011;47916;45.544;10.166;2022-09-03T00:21:59;6.80;;;1.60;;
61956;SDS011;47916;45.544;10.166;2022-09-03T00:22:15;7.07;;;1.55;;
61956;SDS011;47916;45.544;10.166;2022-09-03T00:22:32;3.63;;;1.48;;
61956;SDS011;47916;45.544;10.166;2022-09-03T00:22:47;4.53;;;1.77;;
61956;SDS011;47916;45.544;10.166;2022-09-03T00:23:00;4.32;;;1.73;;
61956;SDS011;47916;45.544;10.166;2022-09-03T00:23:15;3.70;;;1.95;;
61956;SDS011;47916;45.544;10.166;2022-09-03T00:23:28;4.30;;;2.17;;
61956;SDS011;47916;45.544;10.166;2022-09-03T00:23:41;5.10;;;2.13;;
61956;SDS011;47916;45.544;10.166;2022-09-03T00:23:52;4.25;;;2.05;;
61956;SDS011;47916;45.544;10.166;2022-09-03T00:24:06;3.88;;;2.47;;
61956;SDS011;47916;45.544;10.166;2022-09-03T00:24:25;6.13;;;2.50;;
61956;SDS011;47916;45.544;10.166;2022-09-03T00:24:39;5.90;;;2.05;;
61956;SDS011;47916;45.544;10.166;2022-09-03T00:24:52;5.45;;;1.75;;
61956;SDS011;47916;45.544;10.166;2022-09-03T00:25:04;5.30;;;1.70;;
61956;SDS011;47916;45.544;10.166;2022-09-03T00:25:19;4.70;;;1.50;;
61956;SDS011;47916;45.544;10.166;2022-09-03T00:26:24;5.22;;;1.92;;
61956;SDS011;47916;45.544;10.166;2022-09-03T00:26:37;5.32;;;1.77;;
61956;SDS011;47916;45.544;10.166;2022-09-03T00:26:51;5.85;;;1.70;;
61956;SDS011;47916;45.544;10.166;2022-09-03T00:27:05;3.80;;;1.50;;
61956;SDS011;47916;45.544;10.166;2022-09-03T00:27:18;3.70;;;1.73;;
61956;SDS011;47916;45.544;10.166;2022-09-03T00:27:32;3.40;;;1.77;;
61956;SDS011;47916;45.544;10.166;2022-09-03T00:27:47;3.15;;;1.52;;
61956;SDS011;47916;45.544;10.166;2022-09-03T00:28:01;6.38;;;1.70;;
61956;SDS011;47916;45.544;10.166;2022-09-03T00:28:14;6.20;;;1.73;;
61956;SDS011;47916;45.544;10.166;2022-09-03T00:28:33;4.38;;;1.55;;
61956;SDS011;47916;45.544;10.166;2022-09-03T00:29:02;3.40;;;1.35;;
61956;SDS011;47916;45.544;10.166;2022-09-03T00:29:17;5.10;;;1.48;;
61956;SDS011;47916;45.544;10.166;2022-09-03T00:29:32;4.97;;;1.52;;
61956;SDS011;47916;45.544;10.166;2022-09-03T00:29:49;3.83;;;1.73;;
61956;SDS011;47916;45.544;10.166;2022-09-03T00:30:14;6.20;;;2.22;;
61956;SDS011;47916;45.544;10.166;2022-09-03T00:30:27;4.05;;;1.75;;
61956;SDS011;47916;45.544;10.166;2022-09-03T00:30:39;2.78;;;1.80;;
61956;SDS011;47916;45.544;10.166;2022-09-03T00:30:55;3.58;;;2.03;;
61956;SDS011;47916;45.544;10.166;2022-09-03T00:31:13;4.40;;;1.88;;
61956;SDS011;47916;45.544;10.166;2022-09-03T00:31:33;4.32;;;1.75;;
61956;SDS011;47916;45.544;10.166;2022-09-03T00:32:00;4.38;;;1.95;;
61956;SDS011;47916;45.544;10.166;2022-09-03T00:32:17;8.73;;;2.50;;
61956;SDS011;47916;45.544;10.166;2022-09-03T00:32:43;8.18;;;2.60;;
61956;SDS011;47916;45.544;10.166;2022-09-03T00:32:59;5.80;;;2.05;;
61956;SDS011;47916;45.544;10.166;2022-09-03T00:33:21;5.35;;;2.10;;
61956;SDS011;47916;45.544;10.166;2022-09-03T00:33:33;4.38;;;2.28;;
61956;SDS011;47916;45.544;10.166;2022-09-03T00:33:46;4.18;;;1.80;;
61956;SDS011;47916;45.544;10.166;2022-09-03T00:33:59;3.15;;;1.80;;
61956;SDS011;47916;45.544;10.166;2022-09-03T00:34:44;5.40;;;1.88;;
61956;SDS011;47916;45.544;10.166;2022-09-03T00:34:59;5.25;;;2.00;;
61956;SDS011;47916;45.544;10.166;2022-09-03T00:35:16;5.53;;;1.75;;
61956;SDS011;47916;45.544;10.166;2022-09-03T00:35:31;5.20;;;2.20;;
61956;SDS011;47916;45.544;10.166;2022-09-03T00:36:37;3.25;;;1.30;;
61956;SDS011;47916;45.544;10.166;2022-09-03T00:36:50;5.35;;;1.55;;
61956;SDS011;47916;45.544;10.166;2022-09-03T00:37:01;4.93;;;1.52;;
61956;SDS011;47916;45.544;10.166;2022-09-03T00:37:13;3.33;;;1.85;;
61956;SDS011;47916;45.544;10.166;2022-09-03T00:37:26;2.78;;;1.95;;
61956;SDS011;47916;45.544;10.166;2022-09-03T00:37:37;4.32;;;1.90;;
61956;SDS011;47916;45.544;10.166;2022-09-03T00:37:50;4.38;;;1.67;;
61956;SDS011;47916;45.544;10.166;2022-09-03T00:38:02;4.18;;;1.77;;
61956;SDS011;47916;45.544;10.166;2022-09-03T00:38:13;4.30;;;2.25;;
61956;SDS011;47916;45.544;10.166;2022-09-03T00:38:25;5.40;;;2.30;;
61956;SDS011;47916;45.544;10.166;2022-09-03T00:38:37;5.72;;;2.10;;
61956;SDS011;47916;45.544;10.166;2022-09-03T00:38:48;6.95;;;1.80;;
61956;SDS011;47916;45.544;10.166;2022-09-03T00:39:00;5.65;;;1.45;;
61956;SDS011;47916;45.544;10.166;2022-09-03T00:39:12;6.35;;;1.60;;
61956;SDS011;47916;45.544;10.166;2022-09-03T00:39:24;6.20;;;1.60;;
61956;SDS011;47916;45.544;10.166;2022-09-03T00:39:36;5.75;;;1.70;;
61956;SDS011;47916;45.544;10.166;2022-09-03T00:39:48;3.38;;;1.50;;
61956;SDS011;47916;45.544;10.166;2022-09-03T00:39:59;3.70;;;1.48;;
61956;SDS011;47916;45.544;10.166;2022-09-03T00:40:27;4.35;;;1.35;;
61956;SDS011;47916;45.544;10.166;2022-09-03T00:42:08;3.22;;;1.35;;
61956;SDS011;47916;45.544;10.166;2022-09-03T00:43:19;3.97;;;1.50;;
61956;SDS011;47916;45.544;10.166;2022-09-03T00:44:11;4.43;;;1.45;;
61956;SDS011;47916;45.544;10.166;2022-09-03T00:44:30;5.88;;;1.35;;
61956;SDS011;47916;45.544;10.166;2022-09-03T00:45:08;3.40;;;1.20;;
61956;SDS011;47916;45.544;10.166;2022-09-03T00:45:43;3.05;;;1.15;;
61956;SDS011;47916;45.544;10.166;2022-09-03T00:46:22;6.18;;;1.40;;
61956;SDS011;47916;45.544;10.166;2022-09-03T00:46:52;7.78;;;1.42;;
61956;SDS011;47916;45.544;10.166;2022-09-03T00:47:14;7.70;;;1.77;;
61956;SDS011;47916;45.544;10.166;2022-09-03T00:47:33;5.18;;;2.38;;
61956;SDS011;47916;45.544;10.166;2022-09-03T00:47:48;4.78;;;1.98;;
61956;SDS011;47916;45.544;10.166;2022-09-03T00:48:29;6.00;;;2.80;;
61956;SDS011;47916;45.544;10.166;2022-09-03T00:52:59;3.72;;;1.35;;
61956;SDS011;47916;45.544;10.166;2022-09-03T00:53:15;4.60;;;1.50;;
61956;SDS011;47916;45.544;10.166;2022-09-03T00:53:35;4.32;;;1.40;;
61956;SDS011;47916;45.544;10.166;2022-09-03T00:54:38;2.30;;;1.35;;
61956;SDS011;47916;45.544;10.166;2022-09-03T00:55:37;4.15;;;1.42;;
61956;SDS011;47916;45.544;10.166;2022-09-03T00:56:14;3.72;;;1.38;;
61956;SDS011;47916;45.544;10.166;2022-09-03T00:56:35;1.80;;;1.10;;
61956;SDS011;47916;45.544;10.166;2022-09-03T00:58:06;5.07;;;2.10;;
61956;SDS011;47916;45.544;10.166;2022-09-03T00:58:44;8.05;;;1.50;;
61956;SDS011;47916;45.544;10.166;2022-09-03T00:59:55;3.50;;;1.40;;
61956;SDS011;47916;45.544;10.166;2022-09-03T01:00:09;4.80;;;1.80;;
61956;SDS011;47916;45.544;10.166;2022-09-03T01:00:22;5.38;;;1.77;;
61956;SDS011;47916;45.544;10.166;2022-09-03T01:00:33;5.15;;;1.50;;
61956;SDS011;47916;45.544;10.166;2022-09-03T01:00:45;5.50;;;1.60;;
61956;SDS011;47916;45.544;10.166;2022-09-03T01:00:56;4.28;;;1.55;;
61956;SDS011;47916;45.544;10.166;2022-09-03T01:01:09;4.00;;;1.60;;
61956;SDS011;47916;45.544;10.166;2022-09-03T01:01:31;2.53;;;1.23;;
61956;SDS011;47916;45.544;10.166;2022-09-03T01:03:25;4.10;;;1.70;;
61956;SDS011;47916;45.544;10.166;2022-09-03T01:04:45;3.35;;;1.40;;
61956;SDS011;47916;45.544;10.166;2022-09-03T01:06:17;4.80;;;1.35;;
61956;SDS011;47916;45.544;10.166;2022-09-03T01:06:39;3.70;;;1.50;;
61956;SDS011;47916;45.544;10.166;2022-09-03T01:07:30;3.58;;;1.48;;
61956;SDS011;47916;45.544;10.166;2022-09-03T01:07:56;4.60;;;1.80;;
61956;SDS011;47916;45.544;10.166;2022-09-03T01:08:19;7.28;;;1.75;;
61956;SDS011;47916;45.544;10.166;2022-09-03T01:09:44;3.63;;;1.30;;
61956;SDS011;47916;45.544;10.166;2022-09-03T01:10:05;4.00;;;1.30;;
61956;SDS011;47916;45.544;10.166;2022-09-03T01:10:25;4.18;;;1.30;;
61956;SDS011;47916;45.544;10.166;2022-09-03T01:10:50;3.83;;;1.40;;
61956;SDS011;47916;45.544;10.166;2022-09-03T01:12:55;2.47;;;1.23;;
61956;SDS011;47916;45.544;10.166;2022-09-03T01:13:14;3.47;;;1.23;;
61956;SDS011;47916;45.544;10.166;2022-09-03T01:13:56;5.53;;;1.70;;
61956;SDS011;47916;45.544;10.166;2022-09-03T01:14:48;5.15;;;1.85;;
61956;SDS011;47916;45.544;10.166;2022-09-03T01:15:10;3.58;;;1.45;;
61956;SDS011;47916;45.544;10.166;2022-09-03T01:16:43;3.55;;;1.52;;
61956;SDS011;47916;45.544;10.166;2022-09-03T01:17:03;4.25;;;1.75;;
61956;SDS011;47916;45.544;10.166;2022-09-03T01:18:33;4.63;;;1.90;;
61956;SDS011;47916;45.544;10.166;2022-09-03T01:23:42;3.63;;;1.50;;
61956;SDS011;47916;45.544;10.166;2022-09-03T01:24:12;3.03;;;1.20;;
61956;SDS011;47916;45.544;10.166;2022-09-03T01:25:34;2.80;;;1.40;;
61956;SDS011;47916;45.544;10.166;2022-09-03T01:25:52;5.18;;;1.50;;
61956;SDS011;47916;45.544;10.166;2022-09-03T01:28:44;3.28;;;1.20;;
61956;SDS011;47916;45.544;10.166;2022-09-03T01:30:02;3.83;;;1.60;;
61956;SDS011;47916;45.544;10.166;2022-09-03T01:30:16;4.50;;;1.50;;
61956;SDS011;47916;45.544;10.166;2022-09-03T01:30:29;3.63;;;1.40;;
61956;SDS011;47916;45.544;10.166;2022-09-03T01:30:43;2.92;;;1.52;;
61956;SDS011;47916;45.544;10.166;2022-09-03T01:31:01;2.28;;;1.35;;
61956;SDS011;47916;45.544;10.166;2022-09-03T01:31:40;3.92;;;1.58;;
61956;SDS011;47916;45.544;10.166;2022-09-03T01:32:36;3.47;;;1.48;;
61956;SDS011;47916;45.544;10.166;2022-09-03T01:32:53;2.47;;;1.20;;
61956;SDS011;47916;45.544;10.166;2022-09-03T01:33:20;3.20;;;1.10;;
61956;SDS011;47916;45.544;10.166;2022-09-03T01:33:40;3.67;;;1.40;;
61956;SDS011;47916;45.544;10.166;2022-09-03T01:35:52;5.00;;;1.55;;
61956;SDS011;47916;45.544;10.166;2022-09-03T01:36:22;5.20;;;1.20;;
61956;SDS011;47916;45.544;10.166;2022-09-03T01:37:23;2.95;;;1.45;;
61956;SDS011;47916;45.544;10.166;2022-09-03T01:37:50;5.18;;;1.42;;
61956;SDS011;47916;45.544;10.166;2022-09-03T01:38:19;3.35;;;1.40;;
61956;SDS011;47916;45.544;10.166;2022-09-03T01:38:52;8.02;;;1.73;;
61956;SDS011;47916;45.544;10.166;2022-09-03T01:39:07;7.93;;;1.42;;
61956;SDS011;47916;45.544;10.166;2022-09-03T01:39:24;4.78;;;1.40;;
61956;SDS011;47916;45.544;10.166;2022-09-03T01:40:33;4.43;;;1.38;;
61956;SDS011;47916;45.544;10.166;2022-09-03T01:43:05;3.92;;;1.45;;
61956;SDS011;47916;45.544;10.166;2022-09-03T01:43:23;3.55;;;1.10;;
61956;SDS011;47916;45.544;10.166;2022-09-03T01:43:47;3.15;;;1.20;;
61956;SDS011;47916;45.544;10.166;2022-09-03T01:44:13;2.47;;;1.15;;
61956;SDS011;47916;45.544;10.166;2022-09-03T01:44:36;4.30;;;1.70;;
61956;SDS011;47916;45.544;10.166;2022-09-03T01:45:29;4.18;;;1.30;;
61956;SDS011;47916;45.544;10.166;2022-09-03T01:46:09;4.32;;;1.50;;
61956;SDS011;47916;45.544;10.166;2022-09-03T01:46:25;7.13;;;1.70;;
61956;SDS011;47916;45.544;10.166;2022-09-03T01:46:40;8.30;;;1.60;;
61956;SDS011;47916;45.544;10.166;2022-09-03T01:46:58;4.25;;;1.20;;
61956;SDS011;47916;45.544;10.166;2022-09-03T01:47:29;4.07;;;1.50;;
61956;SDS011;47916;45.544;10.166;2022-09-03T01:47:45;4.68;;;1.52;;
61956;SDS011;47916;45.544;10.166;2022-09-03T01:48:51;4.50;;;1.75;;
61956;SDS011;47916;45.544;10.166;2022-09-03T01:49:18;3.17;;;1.55;;
61956;SDS011;47916;45.544;10.166;2022-09-03T01:49:48;6.88;;;1.60;;
61956;SDS011;47916;45.544;10.166;2022-09-03T01:50:09;4.80;;;1.90;;
61956;SDS011;47916;45.544;10.166;2022-09-03T01:51:05;3.05;;;1.60;;
61956;SDS011;47916;45.544;10.166;2022-09-03T01:51:30;2.30;;;1.20;;
61956;SDS011;47916;45.544;10.166;2022-09-03T01:51:41;2.30;;;1.27;;
61956;SDS011;47916;45.544;10.166;2022-09-03T01:51:55;2.80;;;1.15;;
61956;SDS011;47916;45.544;10.166;2022-09-03T01:52:12;5.03;;;1.17;;
61956;SDS011;47916;45.544;10.166;2022-09-03T01:52:35;5.05;;;1.50;;
61956;SDS011;47916;45.544;10.166;2022-09-03T01:54:08;5.68;;;1.80;;
61956;SDS011;47916;45.544;10.166;2022-09-03T01:55:35;5.15;;;1.60;;
61956;SDS011;47916;45.544;10.166;2022-09-03T01:58:34;8.20;;;1.17;;
61956;SDS011;47916;45.544;10.166;2022-09-03T01:58:51;3.53;;;1.45;;
61956;SDS011;47916;45.544;10.166;2022-09-03T01:59:28;5.82;;;1.60;;
61956;SDS011;47916;45.544;10.166;2022-09-03T01:59:42;5.47;;;1.70;;
61956;SDS011;47916;45.544;10.166;2022-09-03T02:00:08;4.40;;;2.08;;
61956;SDS011;47916;45.544;10.166;2022-09-03T02:00:20;3.42;;;1.90;;
61956;SDS011;47916;45.544;10.166;2022-09-03T02:00:32;3.03;;;1.40;;
61956;SDS011;47916;45.544;10.166;2022-09-03T02:00:44;3.38;;;1.20;;
61956;SDS011;47916;45.544;10.166;2022-09-03T02:00:57;3.20;;;1.10;;
61956;SDS011;47916;45.544;10.166;2022-09-03T02:01:15;3.72;;;1.08;;
61956;SDS011;47916;45.544;10.166;2022-09-03T02:01:29;4.45;;;1.15;;
61956;SDS011;47916;45.544;10.166;2022-09-03T02:01:45;3.83;;;1.40;;
61956;SDS011;47916;45.544;10.166;2022-09-03T02:02:02;3.40;;;1.50;;
61956;SDS011;47916;45.544;10.166;2022-09-03T02:02:16;5.18;;;1.42;;
61956;SDS011;47916;45.544;10.166;2022-09-03T02:02:28;4.30;;;1.58;;
61956;SDS011;47916;45.544;10.166;2022-09-03T02:02:41;3.55;;;1.50;;
61956;SDS011;47916;45.544;10.166;2022-09-03T02:02:53;3.38;;;1.40;;
61956;SDS011;47916;45.544;10.166;2022-09-03T02:03:06;2.20;;;1.20;;
61956;SDS011;47916;45.544;10.166;2022-09-03T02:03:20;2.50;;;1.10;;
61956;SDS011;47916;45.544;10.166;2022-09-03T02:03:32;2.65;;;1.30;;
61956;SDS011;47916;45.544;10.166;2022-09-03T02:03:51;3.92;;;1.60;;
61956;SDS011;47916;45.544;10.166;2022-09-03T02:04:12;4.03;;;1.45;;
61956;SDS011;47916;45.544;10.166;2022-09-03T02:04:25;4.25;;;1.23;;
61956;SDS011;47916;45.544;10.166;2022-09-03T02:04:36;4.10;;;1.30;;
61956;SDS011;47916;45.544;10.166;2022-09-03T02:05:01;3.92;;;1.30;;
61956;SDS011;47916;45.544;10.166;2022-09-03T02:05:23;3.17;;;1.35;;
61956;SDS011;47916;45.544;10.166;2022-09-03T02:05:35;2.35;;;1.25;;
61956;SDS011;47916;45.544;10.166;2022-09-03T02:05:46;2.42;;;1.30;;
61956;SDS011;47916;45.544;10.166;2022-09-03T02:05:58;2.63;;;1.23;;
61956;SDS011;47916;45.544;10.166;2022-09-03T02:06:10;2.95;;;1.30;;
61956;SDS011;47916;45.544;10.166;2022-09-03T02:06:22;3.72;;;1.27;;
61956;SDS011;47916;45.544;10.166;2022-09-03T02:06:33;4.60;;;1.65;;
61956;SDS011;47916;45.544;10.166;2022-09-03T02:06:46;4.47;;;1.80;;
61956;SDS011;47916;45.544;10.166;2022-09-03T02:06:58;4.72;;;1.70;;
61956;SDS011;47916;45.544;10.166;2022-09-03T02:07:10;5.05;;;1.60;;
61956;SDS011;47916;45.544;10.166;2022-09-03T02:07:22;4.15;;;1.30;;
61956;SDS011;47916;45.544;10.166;2022-09-03T02:07:35;3.95;;;1.13;;
61956;SDS011;47916;45.544;10.166;2022-09-03T02:07:48;4.05;;;1.30;;
61956;SDS011;47916;45.544;10.166;2022-09-03T02:08:04;2.75;;;1.40;;
61956;SDS011;47916;45.544;10.166;2022-09-03T02:08:17;3.53;;;1.67;;
61956;SDS011;47916;45.544;10.166;2022-09-03T02:08:28;3.65;;;1.65;;
61956;SDS011;47916;45.544;10.166;2022-09-03T02:08:40;2.95;;;1.20;;
61956;SDS011;47916;45.544;10.166;2022-09-03T02:08:52;3.33;;;1.30;;
61956;SDS011;47916;45.544;10.166;2022-09-03T02:09:03;3.15;;;1.20;;
61956;SDS011;47916;45.544;10.166;2022-09-03T02:09:18;3.28;;;1.20;;
61956;SDS011;47916;45.544;10.166;2022-09-03T02:09:30;3.15;;;1.20;;
61956;SDS011;47916;45.544;10.166;2022-09-03T02:09:43;3.72;;;1.33;;
61956;SDS011;47916;45.544;10.166;2022-09-03T02:09:54;2.87;;;1.30;;
61956;SDS011;47916;45.544;10.166;2022-09-03T02:10:08;3.15;;;1.40;;
61956;SDS011;47916;45.544;10.166;2022-09-03T02:10:27;3.60;;;1.40;;
61956;SDS011;47916;45.544;10.166;2022-09-03T02:10:52;3.33;;;1.35;;
61956;SDS011;47916;45.544;10.166;2022-09-03T02:11:05;3.63;;;1.30;;
61956;SDS011;47916;45.544;10.166;2022-09-03T02:11:17;2.97;;;1.23;;
61956;SDS011;47916;45.544;10.166;2022-09-03T02:11:28;3.35;;;1.30;;
61956;SDS011;47916;45.544;10.166;2022-09-03T02:11:39;3.17;;;1.50;;
61956;SDS011;47916;45.544;10.166;2022-09-03T02:11:55;4.78;;;1.60;;
61956;SDS011;47916;45.544;10.166;2022-09-03T02:12:10;4.47;;;1.38;;
61956;SDS011;47916;45.544;10.166;2022-09-03T02:12:24;2.50;;;1.33;;
61956;SDS011;47916;45.544;10.166;2022-09-03T02:12:35;3.38;;;1.40;;
61956;SDS011;47916;45.544;10.166;2022-09-03T02:12:50;3.58;;;1.38;;
61956;SDS011;47916;45.544;10.166;2022-09-03T02:13:27;3.40;;;1.48;;
61956;SDS011;47916;45.544;10.166;2022-09-03T02:13:41;4.03;;;1.40;;
61956;SDS011;47916;45.544;10.166;2022-09-03T02:13:53;3.92;;;1.42;;
61956;SDS011;47916;45.544;10.166;2022-09-03T02:14:07;4.60;;;1.33;;
61956;SDS011;47916;45.544;10.166;2022-09-03T02:14:18;4.00;;;1.35;;
61956;SDS011;47916;45.544;10.166;2022-09-03T02:14:30;3.20;;;1.45;;
61956;SDS011;47916;45.544;10.166;2022-09-03T02:14:41;4.00;;;1.30;;
61956;SDS011;47916;45.544;10.166;2022-09-03T02:14:53;4.35;;;1.30;;
61956;SDS011;47916;45.544;10.166;2022-09-03T02:15:06;4.25;;;1.30;;
61956;SDS011;47916;45.544;10.166;2022-09-03T02:15:20;4.32;;;1.30;;
61956;SDS011;47916;45.544;10.166;2022-09-03T02:15:32;3.92;;;1.40;;
61956;SDS011;47916;45.544;10.166;2022-09-03T02:15:45;4.07;;;1.70;;
61956;SDS011;47916;45.544;10.166;2022-09-03T02:16:00;3.70;;;1.63;;
61956;SDS011;47916;45.544;10.166;2022-09-03T02:16:14;2.13;;;1.17;;
61956;SDS011;47916;45.544;10.166;2022-09-03T02:16:27;2.00;;;1.25;;
61956;SDS011;47916;45.544;10.166;2022-09-03T02:16:43;2.42;;;1.40;;
61956;SDS011;47916;45.544;10.166;2022-09-03T02:16:55;2.53;;;1.10;;
61956;SDS011;47916;45.544;10.166;2022-09-03T02:17:07;2.10;;;1.00;;
61956;SDS011;47916;45.544;10.166;2022-09-03T02:17:21;4.35;;;1.38;;
61956;SDS011;47916;45.544;10.166;2022-09-03T02:17:32;5.43;;;1.30;;
61956;SDS011;47916;45.544;10.166;2022-09-03T02:17:45;4.93;;;1.20;;
61956;SDS011;47916;45.544;10.166;2022-09-03T02:17:58;3.70;;;0.98;;
61956;SDS011;47916;45.544;10.166;2022-09-03T02:18:19;3.05;;;1.02;;
61956;SDS011;47916;45.544;10.166;2022-09-03T02:18:39;3.90;;;1.15;;
61956;SDS011;47916;45.544;10.166;2022-09-03T02:18:56;3.40;;;1.30;;
61956;SDS011;47916;45.544;10.166;2022-09-03T02:19:13;2.95;;;1.48;;
61956;SDS011;47916;45.544;10.166;2022-09-03T02:19:25;2.75;;;1.48;;
61956;SDS011;47916;45.544;10.166;2022-09-03T02:19:37;2.10;;;1.13;;
61956;SDS011;47916;45.544;10.166;2022-09-03T02:19:49;2.70;;;1.20;;
61956;SDS011;47916;45.544;10.166;2022-09-03T02:20:03;4.60;;;1.40;;
61956;SDS011;47916;45.544;10.166;2022-09-03T02:20:19;4.45;;;1.30;;
61956;SDS011;47916;45.544;10.166;2022-09-03T02:20:30;2.67;;;0.93;;
61956;SDS011;47916;45.544;10.166;2022-09-03T02:20:42;2.10;;;1.10;;
61956;SDS011;47916;45.544;10.166;2022-09-03T02:20:55;2.00;;;1.17;;
61956;SDS011;47916;45.544;10.166;2022-09-03T02:21:07;2.22;;;1.00;;
61956;SDS011;47916;45.544;10.166;2022-09-03T02:21:19;5.05;;;1.30;;
61956;SDS011;47916;45.544;10.166;2022-09-03T02:21:34;5.75;;;1.50;;
61956;SDS011;47916;45.544;10.166;2022-09-03T02:21:48;4.70;;;1.10;;
61956;SDS011;47916;45.544;10.166;2022-09-03T02:22:00;3.47;;;1.00;;
61956;SDS011;47916;45.544;10.166;2022-09-03T02:22:11;3.45;;;1.08;;
61956;SDS011;47916;45.544;10.166;2022-09-03T02:22:23;2.38;;;0.98;;
61956;SDS011;47916;45.544;10.166;2022-09-03T02:22:34;3.88;;;1.08;;
61956;SDS011;47916;45.544;10.166;2022-09-03T02:22:46;4.20;;;1.17;;
61956;SDS011;47916;45.544;10.166;2022-09-03T02:22:58;3.75;;;1.50;;
61956;SDS011;47916;45.544;10.166;2022-09-03T02:23:09;2.10;;;1.20;;
61956;SDS011;47916;45.544;10.166;2022-09-03T02:23:21;3.13;;;1.38;;
61956;SDS011;47916;45.544;10.166;2022-09-03T02:23:39;3.55;;;1.15;;
61956;SDS011;47916;45.544;10.166;2022-09-03T02:23:50;3.47;;;1.20;;
61956;SDS011;47916;45.544;10.166;2022-09-03T02:24:02;3.10;;;1.40;;
61956;SDS011;47916;45.544;10.166;2022-09-03T02:24:14;2.42;;;1.27;;
61956;SDS011;47916;45.544;10.166;2022-09-03T02:24:26;2.63;;;0.93;;
61956;SDS011;47916;45.544;10.166;2022-09-03T02:24:38;2.90;;;1.10;;
61956;SDS011;47916;45.544;10.166;2022-09-03T02:24:49;2.38;;;1.10;;
61956;SDS011;47916;45.544;10.166;2022-09-03T02:25:00;1.73;;;1.05;;
61956;SDS011;47916;45.544;10.166;2022-09-03T02:25:12;1.80;;;1.10;;
61956;SDS011;47916;45.544;10.166;2022-09-03T02:25:27;3.15;;;1.05;;
61956;SDS011;47916;45.544;10.166;2022-09-03T02:25:41;4.05;;;1.17;;
61956;SDS011;47916;45.544;10.166;2022-09-03T02:25:57;2.75;;;1.20;;
61956;SDS011;47916;45.544;10.166;2022-09-03T02:26:09;2.35;;;1.23;;
61956;SDS011;47916;45.544;10.166;2022-09-03T02:26:22;2.67;;;1.40;;
61956;SDS011;47916;45.544;10.166;2022-09-03T02:26:34;1.90;;;1.20;;
61956;SDS011;47916;45.544;10.166;2022-09-03T02:26:46;2.40;;;1.27;;
61956;SDS011;47916;45.544;10.166;2022-09-03T02:26:57;2.25;;;1.23;;
61956;SDS011;47916;45.544;10.166;2022-09-03T02:27:08;2.85;;;1.35;;
61956;SDS011;47916;45.544;10.166;2022-09-03T02:27:20;2.50;;;1.40;;
61956;SDS011;47916;45.544;10.166;2022-09-03T02:27:31;2.40;;;1.30;;
61956;SDS011;47916;45.544;10.166;2022-09-03T02:27:42;1.88;;;1.23;;
61956;SDS011;47916;45.544;10.166;2022-09-03T02:27:54;3.97;;;1.33;;